Time;durP1;ratioP1;P1;durP2;ratioP2;P2;SDS_P1;SDS_P2;PMS_P1;PMS_P2;Temp;Humidity;BMP_temperature;BMP_pressure;BME280_temperature;BME280_humidity;BME280_pressure;Samples;Min_cycle;Max_cycle;Signal;HPM_P1;HPM_P2
2023/11/16 00:02:23;;;;;;;1.92;1.10;;;;;;;7.07;81.13;94848.81;5111531;28;20031;-67
2023/11/16 00:04:48;;;;;;;1.23;0.90;;;;;;;7.27;81.22;94852.63;5111610;28;20034;-67
2023/11/16 00:07:15;;;;;;;3.60;1.00;;;;;;;7.07;82.50;94853.97;5108344;28;20028;-66
2023/11/16 00:09:40;;;;;;;1.60;0.93;;;;;;;7.13;82.31;94858.75;5110719;27;20055;-66
2023/11/16 00:12:06;;;;;;;1.50;1.00;;;;;;;7.04;81.31;94854.19;5113903;28;20024;-68
2023/11/16 00:14:32;;;;;;;1.58;0.95;;;;;;;7.04;80.97;94863.69;5094330;27;20043;-67
2023/11/16 00:17:00;;;;;;;1.50;1.08;;;;;;;6.94;81.35;94872.09;5111472;28;20023;-67
2023/11/16 00:19:26;;;;;;;1.92;1.20;;;;;;;7.05;80.52;94855.88;5102970;28;20417;-67
2023/11/16 00:21:52;;;;;;;2.25;1.00;;;;;;;6.89;80.31;94865.56;5113375;28;20020;-66
2023/11/16 00:24:17;;;;;;;1.77;1.10;;;;;;;6.81;80.18;94875.59;5112315;27;20039;-66
2023/11/16 00:26:44;;;;;;;1.60;1.10;;;;;;;6.84;77.77;94875.38;5092504;28;20107;-67
2023/11/16 00:29:11;;;;;;;1.73;1.27;;;;;;;7.00;78.11;94885.53;5111525;28;20042;-67
2023/11/16 00:31:36;;;;;;;3.65;1.20;;;;;;;7.04;77.91;94889.53;5110378;28;20016;-67
2023/11/16 00:34:02;;;;;;;2.30;1.52;;;;;;;7.01;78.50;94884.59;5107356;27;20038;-67
2023/11/16 00:36:27;;;;;;;2.63;1.30;;;;;;;7.01;79.45;94885.41;5107889;27;20566;-67
2023/11/16 00:38:53;;;;;;;1.33;0.93;;;;;;;7.01;76.73;94887.97;5108057;27;20027;-67
2023/11/16 00:54:07;;;;;;;5.28;3.00;;;;;;;7.46;75.45;94874.59;5099509;27;20405;-75
2023/11/16 00:56:33;;;;;;;2.83;1.60;;;;;;;7.46;73.60;94877.19;5102858;28;20496;-75
2023/11/16 00:58:58;;;;;;;2.30;1.40;;;;;;;7.48;74.00;94872.75;5084320;28;20035;-75
2023/11/16 01:01:26;;;;;;;2.17;1.20;;;;;;;7.06;72.98;94883.34;5084449;28;20017;-75
2023/11/16 01:03:53;;;;;;;2.10;1.30;;;;;;;7.27;72.71;94878.47;5064489;28;20055;-75
2023/11/16 01:06:19;;;;;;;2.10;1.33;;;;;;;7.24;73.94;94880.44;5083807;28;20043;-75
2023/11/16 01:08:44;;;;;;;2.40;1.60;;;;;;;7.33;73.35;94883.22;5082154;28;20032;-75
2023/11/16 01:11:12;;;;;;;2.42;1.30;;;;;;;7.32;71.96;94881.53;5082644;28;20028;-74
2023/11/16 01:13:38;;;;;;;2.55;1.30;;;;;;;7.51;72.59;94883.69;5046913;28;20127;-75
2023/11/16 01:16:14;;;;;;;3.47;1.48;;;;;;;7.45;73.96;94872.97;5082709;28;20596;-74
2023/11/16 01:18:51;;;;;;;1.95;1.50;;;;;;;7.27;73.41;94870.72;5065830;28;20109;-75
2023/11/16 01:21:18;;;;;;;1.85;1.30;;;;;;;7.44;71.26;94886.78;5066281;28;20569;-75
2023/11/16 01:23:47;;;;;;;2.17;1.30;;;;;;;7.27;71.57;94886.22;5080131;28;20402;-75
2023/11/16 01:26:17;;;;;;;3.15;1.30;;;;;;;7.31;70.40;94886.84;5050193;28;20032;-75
2023/11/16 01:28:46;;;;;;;2.45;1.80;;;;;;;7.28;71.94;94892.22;5081747;28;20021;-75
2023/11/16 01:31:16;;;;;;;1.95;1.30;;;;;;;7.36;71.42;94893.34;5083146;28;20037;-77
2023/11/16 01:33:42;;;;;;;2.88;1.20;;;;;;;7.35;70.91;94891.69;5063837;28;20024;-76
2023/11/16 01:36:11;;;;;;;2.38;1.20;;;;;;;7.15;70.58;94887.88;5065303;28;20039;-75
2023/11/16 01:38:36;;;;;;;1.70;1.20;;;;;;;7.14;70.39;94875.91;5081187;28;20485;-76
2023/11/16 01:41:09;;;;;;;2.10;1.27;;;;;;;7.15;71.12;94866.38;5065485;28;20035;-76
2023/11/16 01:43:35;;;;;;;1.73;1.05;;;;;;;7.17;70.91;94877.44;5080009;28;20059;-76
2023/11/16 01:46:05;;;;;;;1.80;1.20;;;;;;;7.02;71.53;94886.22;5065150;28;20059;-75
2023/11/16 01:48:32;;;;;;;3.93;1.23;;;;;;;6.99;71.39;94879.50;5081621;28;20050;-75
2023/11/16 01:50:58;;;;;;;2.00;1.23;;;;;;;7.04;70.53;94892.94;5083614;28;20767;-75
2023/11/16 01:53:24;;;;;;;2.50;1.40;;;;;;;7.04;71.78;94881.78;5042335;28;20048;-76
2023/11/16 01:55:50;;;;;;;2.47;1.30;;;;;;;6.94;71.77;94899.69;5052028;28;20560;-75
2023/11/16 01:58:16;;;;;;;1.80;1.20;;;;;;;6.90;71.29;94911.94;5051286;28;20037;-76
2023/11/16 02:00:42;;;;;;;2.05;1.27;;;;;;;7.10;70.57;94915.78;5052669;28;20055;-77
2023/11/16 02:03:08;;;;;;;2.38;1.40;;;;;;;6.97;70.22;94896.06;5067209;28;20067;-76
2023/11/16 02:05:35;;;;;;;1.63;1.20;;;;;;;7.15;70.22;94916.28;5068128;28;20112;-76
2023/11/16 02:08:02;;;;;;;1.58;1.20;;;;;;;7.13;71.06;94899.22;5052015;28;20052;-76
2023/11/16 02:10:31;;;;;;;2.15;1.10;;;;;;;7.21;70.21;94903.88;5052020;28;20020;-76
2023/11/16 02:13:00;;;;;;;2.72;1.30;;;;;;;7.18;70.00;94893.78;5048688;28;20549;-76
2023/11/16 02:15:31;;;;;;;1.50;0.98;;;;;;;7.30;69.31;94911.00;5050693;28;20036;-76
2023/11/16 02:17:57;;;;;;;2.05;1.10;;;;;;;7.27;68.65;94903.47;5052469;28;20086;-76
2023/11/16 02:20:25;;;;;;;2.05;1.13;;;;;;;7.31;69.31;94902.34;5068461;28;20402;-75
2023/11/16 02:22:51;;;;;;;2.15;1.20;;;;;;;7.33;69.07;94911.66;5065847;28;20032;-76
2023/11/16 02:25:20;;;;;;;1.67;0.98;;;;;;;7.30;69.65;94921.34;5069062;28;20563;-76
2023/11/16 02:27:45;;;;;;;1.98;1.02;;;;;;;7.34;68.84;94926.22;5036643;28;20425;-75
2023/11/16 02:30:12;;;;;;;1.52;1.00;;;;;;;7.51;68.67;94930.22;5053291;28;20025;-75
2023/11/16 02:32:38;;;;;;;2.92;1.02;;;;;;;7.55;69.49;94931.69;5068788;28;20054;-75
2023/11/16 02:35:04;;;;;;;1.80;1.20;;;;;;;7.60;68.36;94932.19;5069091;28;20142;-75
2023/11/16 02:37:29;;;;;;;1.77;1.20;;;;;;;7.56;68.95;94946.25;5069560;28;20043;-76
2023/11/16 02:39:56;;;;;;;2.35;1.20;;;;;;;7.67;68.87;94949.88;5071497;28;20031;-75
2023/11/16 02:42:21;;;;;;;4.13;2.20;;;;;;;7.53;68.79;94928.38;5069074;28;20044;-75
2023/11/16 02:44:47;;;;;;;12.77;3.58;;;;;;;7.72;68.25;94948.59;5071591;28;20032;-75
2023/11/16 02:47:13;;;;;;;3.60;1.60;;;;;;;7.69;68.60;94945.38;5073058;28;20050;-75
2023/11/16 02:49:38;;;;;;;2.42;1.20;;;;;;;7.65;69.65;94959.47;5072749;28;20433;-76
2023/11/16 02:52:04;;;;;;;1.75;1.17;;;;;;;7.55;69.07;94938.59;5038855;28;20422;-75
2023/11/16 02:54:30;;;;;;;1.75;1.20;;;;;;;7.53;69.44;94963.72;5034883;28;20025;-76
2023/11/16 02:56:55;;;;;;;3.33;1.77;;;;;;;7.61;69.43;94964.84;5051743;28;20511;-75
2023/11/16 02:59:21;;;;;;;2.08;1.40;;;;;;;7.58;69.99;94959.91;5051392;28;20052;-76
2023/11/16 03:01:46;;;;;;;2.30;1.40;;;;;;;7.55;69.47;94954.09;5071956;28;20036;-76
2023/11/16 03:04:12;;;;;;;2.28;1.30;;;;;;;7.57;69.47;94962.56;5086907;28;20024;-75
2023/11/16 03:06:38;;;;;;;3.25;1.40;;;;;;;7.55;68.10;94957.53;5069624;28;20383;-75
2023/11/16 03:09:04;;;;;;;2.50;1.30;;;;;;;7.51;68.87;94956.06;5071006;28;20116;-75
2023/11/16 03:11:33;;;;;;;1.65;1.10;;;;;;;7.51;71.21;94961.25;5087545;28;20512;-74
2023/11/16 03:13:59;;;;;;;1.50;1.00;;;;;;;7.51;69.46;94961.25;5072274;28;20035;-74
2023/11/16 03:16:25;;;;;;;3.45;2.30;;;;;;;7.42;69.81;94961.88;5070543;28;20029;-75
2023/11/16 03:18:51;;;;;;;2.42;1.42;;;;;;;7.38;70.54;94955.25;5086105;28;20025;-73
2023/11/16 03:21:16;;;;;;;2.22;1.35;;;;;;;7.33;69.65;94960.75;5053834;28;20040;-75
2023/11/16 03:23:42;;;;;;;2.25;1.20;;;;;;;7.44;70.07;94957.44;5053912;28;20036;-75
2023/11/16 03:26:07;;;;;;;2.53;1.42;;;;;;;7.26;70.40;94964.66;5070684;28;20070;-75
2023/11/16 03:28:35;;;;;;;3.38;1.40;;;;;;;7.30;69.76;94960.97;5070537;28;20032;-75
2023/11/16 03:31:01;;;;;;;2.78;1.25;;;;;;;7.33;70.03;94962.50;5053990;28;20024;-75
2023/11/16 03:33:26;;;;;;;2.47;1.20;;;;;;;7.35;69.98;94965.78;5115548;27;20157;-75
2023/11/16 03:35:53;;;;;;;2.20;1.30;;;;;;;7.12;69.20;94988.00;5070195;28;20028;-75
2023/11/16 03:38:18;;;;;;;2.08;1.33;;;;;;;7.12;68.64;94988.84;5070589;28;20029;-75
2023/11/16 03:40:44;;;;;;;2.65;1.30;;;;;;;7.17;69.30;94991.13;5104156;28;20032;-76
2023/11/16 03:43:10;;;;;;;2.22;1.20;;;;;;;7.21;68.56;94984.00;5071142;28;20472;-79
2023/11/16 03:45:35;;;;;;;3.45;1.58;;;;;;;7.04;68.86;94982.53;5098494;28;20029;-75
2023/11/16 03:48:01;;;;;;;2.42;1.45;;;;;;;7.18;70.11;94997.13;5068356;28;20028;-76
2023/11/16 03:50:26;;;;;;;2.15;1.20;;;;;;;7.15;69.27;94996.38;5068571;28;20036;-75
2023/11/16 03:52:52;;;;;;;1.95;1.20;;;;;;;6.97;68.59;94992.44;5050958;28;20114;-76
2023/11/16 03:55:17;;;;;;;1.83;1.27;;;;;;;7.09;68.57;94996.78;5069666;28;20025;-76
2023/11/16 03:57:43;;;;;;;2.75;1.60;;;;;;;6.92;68.69;95012.56;5052975;28;20040;-75
2023/11/16 04:00:09;;;;;;;3.53;1.27;;;;;;;7.00;68.17;95001.75;5052933;28;20028;-75
2023/11/16 04:02:35;;;;;;;3.90;2.80;;;;;;;7.02;68.87;95013.66;5069434;28;20048;-75
2023/11/16 04:05:00;;;;;;;4.55;1.90;;;;;;;7.12;68.57;95013.84;5069203;28;20028;-74
2023/11/16 04:07:26;;;;;;;4.20;1.50;;;;;;;7.02;70.05;95013.66;5069167;28;20475;-75
2023/11/16 04:09:51;;;;;;;3.47;1.70;;;;;;;6.89;70.69;95020.53;5035815;28;20063;-75
2023/11/16 04:12:17;;;;;;;3.10;2.10;;;;;;;6.79;70.47;95004.78;5064569;28;20048;-75
2023/11/16 04:14:43;;;;;;;2.97;1.92;;;;;;;6.64;70.21;95001.44;5049204;28;20058;-76
2023/11/16 04:17:13;;;;;;;6.82;2.95;;;;;;;6.72;71.17;95012.13;5055537;28;20032;-75
2023/11/16 04:19:39;;;;;;;2.50;1.90;;;;;;;6.63;71.58;95004.97;5071795;28;20020;-75
2023/11/16 04:22:07;;;;;;;2.58;1.70;;;;;;;6.67;71.52;95016.75;5033899;28;20135;-75
2023/11/16 04:24:41;;;;;;;3.47;2.00;;;;;;;6.55;71.51;95020.13;5068383;28;20031;-75
2023/11/16 04:27:06;;;;;;;2.67;2.28;;;;;;;6.56;70.93;95019.19;5070682;28;20053;-75
2023/11/16 04:29:32;;;;;;;5.53;1.80;;;;;;;6.44;69.32;94996.75;5069512;28;20028;-74
2023/11/16 04:31:58;;;;;;;4.50;2.00;;;;;;;6.59;70.28;95013.00;5069103;28;20028;-75
2023/11/16 04:34:24;;;;;;;2.47;2.00;;;;;;;6.55;70.02;95021.88;5052008;28;20116;-74
2023/11/16 04:36:52;;;;;;;3.40;2.55;;;;;;;6.66;69.11;95020.25;5068808;28;20134;-74
2023/11/16 04:39:18;;;;;;;6.85;3.83;;;;;;;6.65;69.12;95033.25;5070191;28;20020;-75
2023/11/16 04:41:46;;;;;;;6.97;5.68;;;;;;;6.76;68.10;95040.31;5068579;28;20033;-75
2023/11/16 04:44:12;;;;;;;10.63;8.00;;;;;;;6.80;68.36;95044.34;5069084;28;20013;-75
2023/11/16 04:46:46;;;;;;;3.67;2.30;;;;;;;6.69;68.15;95040.72;5051463;28;20035;-74
2023/11/16 04:49:13;;;;;;;3.70;2.00;;;;;;;6.75;68.10;95046.41;5052563;28;20520;-74
2023/11/16 04:51:40;;;;;;;2.67;1.67;;;;;;;6.72;66.90;95055.19;5070079;28;20037;-75
2023/11/16 04:54:06;;;;;;;3.60;3.13;;;;;;;6.77;67.28;95047.13;5068590;28;20041;-75
2023/11/16 04:56:31;;;;;;;6.82;6.15;;;;;;;6.93;68.26;95061.53;5068767;28;20036;-75
2023/11/16 04:58:57;;;;;;;6.38;5.78;;;;;;;6.79;67.73;95045.28;5069063;28;20082;-75
2023/11/16 05:01:23;;;;;;;3.83;3.33;;;;;;;6.80;67.23;95058.09;5069897;28;20016;-74
2023/11/16 05:03:48;;;;;;;5.75;4.32;;;;;;;6.60;68.75;95059.38;5070149;28;20097;-75
2023/11/16 05:06:14;;;;;;;3.67;2.50;;;;;;;6.67;66.41;95063.22;5085870;28;20448;-74
2023/11/16 05:08:40;;;;;;;3.30;2.30;;;;;;;6.58;65.65;95040.56;5069274;28;20043;-74
2023/11/16 05:11:06;;;;;;;2.35;1.40;;;;;;;6.75;65.08;95054.16;5052278;28;20494;-74
2023/11/16 05:13:32;;;;;;;2.90;2.28;;;;;;;6.85;65.34;95068.13;5052763;28;20037;-74
2023/11/16 05:15:58;;;;;;;2.50;2.00;;;;;;;6.64;67.32;95057.44;5068120;28;20051;-74
2023/11/16 05:18:24;;;;;;;2.65;1.90;;;;;;;6.71;65.20;95053.50;5067646;28;20390;-74
2023/11/16 05:20:49;;;;;;;4.88;3.47;;;;;;;6.78;64.89;95069.47;5047712;28;20059;-75
2023/11/16 05:23:17;;;;;;;2.55;1.92;;;;;;;6.84;64.52;95069.06;5065590;28;20044;-75
2023/11/16 05:25:44;;;;;;;7.95;5.22;;;;;;;6.68;65.29;95062.28;5066055;28;20504;-74
2023/11/16 05:28:11;;;;;;;4.68;3.10;;;;;;;6.74;65.19;95058.47;5048831;28;20086;-75
2023/11/16 05:30:37;;;;;;;3.75;2.83;;;;;;;6.79;66.10;95071.09;5067663;28;20106;-74
2023/11/16 05:33:03;;;;;;;7.28;3.80;;;;;;;6.82;65.70;95073.50;5070856;28;20101;-75
2023/11/16 05:35:29;;;;;;;13.40;6.10;;;;;;;6.94;65.36;95075.31;5052014;28;20445;-74
2023/11/16 05:37:55;;;;;;;11.45;5.53;;;;;;;6.79;65.83;95065.94;5067587;28;20067;-74
2023/11/16 05:40:20;;;;;;;8.50;4.20;;;;;;;6.76;66.24;95079.03;5051469;28;20086;-75
2023/11/16 05:42:46;;;;;;;5.15;2.97;;;;;;;6.83;66.33;95081.16;5069187;28;20036;-75
2023/11/16 05:45:14;;;;;;;7.53;3.20;;;;;;;6.74;67.66;95083.47;5068663;28;20425;-74
2023/11/16 05:47:40;;;;;;;4.18;2.20;;;;;;;6.66;68.15;95087.38;5067620;28;20045;-75
2023/11/16 05:50:07;;;;;;;5.40;3.83;;;;;;;6.66;67.04;95081.41;5068670;28;20042;-74
2023/11/16 05:52:33;;;;;;;4.07;2.42;;;;;;;6.75;65.95;95105.81;5051513;28;20074;-75
2023/11/16 05:54:58;;;;;;;4.95;2.40;;;;;;;6.77;69.08;95097.03;5068861;28;20477;-75
2023/11/16 05:57:24;;;;;;;6.82;5.07;;;;;;;6.71;68.15;95110.31;5067258;28;20025;-77
2023/11/16 05:59:50;;;;;;;5.95;3.50;;;;;;;6.60;68.04;95117.91;5067602;28;20032;-75
2023/11/16 06:02:15;;;;;;;4.68;3.20;;;;;;;6.52;66.82;95120.13;5071622;28;20423;-75
2023/11/16 06:04:42;;;;;;;4.10;1.60;;;;;;;6.55;66.47;95125.94;5051818;28;20021;-75
2023/11/16 06:07:07;;;;;;;4.20;3.30;;;;;;;6.57;65.99;95118.91;5068941;28;20033;-75
2023/11/16 06:09:33;;;;;;;3.30;1.80;;;;;;;6.52;66.38;95126.16;5066609;28;20086;-74
2023/11/16 06:12:01;;;;;;;2.97;1.80;;;;;;;6.78;65.33;95132.25;5068974;28;20020;-74
2023/11/16 06:14:31;;;;;;;5.38;2.97;;;;;;;6.61;65.08;95097.16;5067649;28;20029;-74
2023/11/16 06:16:57;;;;;;;4.07;2.50;;;;;;;6.87;63.33;95128.25;5052167;28;20033;-75
2023/11/16 06:19:22;;;;;;;3.25;2.15;;;;;;;6.87;63.16;95136.00;5066520;28;20309;-75
2023/11/16 06:21:48;;;;;;;2.15;1.55;;;;;;;7.06;62.78;95141.66;5071044;28;20036;-75
2023/11/16 06:24:14;;;;;;;5.32;3.60;;;;;;;7.14;62.62;95144.59;5069879;28;20142;-75
2023/11/16 06:26:39;;;;;;;6.97;4.78;;;;;;;7.19;62.77;95148.63;5070333;28;20406;-75
2023/11/16 06:29:06;;;;;;;4.65;3.55;;;;;;;7.23;62.67;95156.09;5065505;28;20566;-74
2023/11/16 06:31:31;;;;;;;4.03;2.35;;;;;;;7.16;62.86;95145.31;5065968;28;20036;-75
2023/11/16 06:33:57;;;;;;;4.13;1.65;;;;;;;7.16;62.22;95141.91;5051223;28;20390;-75
2023/11/16 06:36:23;;;;;;;3.33;1.60;;;;;;;7.25;62.57;95156.00;5069145;28;20039;-75
2023/11/16 06:38:49;;;;;;;3.45;1.90;;;;;;;7.28;62.18;95163.56;5068200;28;20152;-75
2023/11/16 06:41:16;;;;;;;3.50;1.90;;;;;;;7.26;61.24;95176.56;5070319;28;20020;-76
2023/11/16 06:43:41;;;;;;;3.40;1.13;;;;;;;7.37;60.30;95155.19;5064443;28;20123;-77
2023/11/16 06:46:12;;;;;;;2.60;1.75;;;;;;;7.31;61.32;95142.69;5068559;28;20040;-76
2023/11/16 06:48:38;;;;;;;3.90;1.83;;;;;;;7.40;61.56;95165.34;5062603;28;20102;-76
2023/11/16 06:51:08;;;;;;;2.58;1.67;;;;;;;7.31;60.74;95148.66;5066130;28;20029;-76
2023/11/16 06:53:36;;;;;;;2.33;1.10;;;;;;;7.52;59.92;95161.97;5068613;28;20055;-77
2023/11/16 06:56:04;;;;;;;2.03;1.20;;;;;;;7.53;59.71;95152.47;5066880;28;20490;-78
2023/11/16 06:58:30;;;;;;;4.78;1.80;;;;;;;7.61;59.89;95166.53;5083136;28;20028;-78
2023/11/16 07:00:55;;;;;;;3.25;2.10;;;;;;;7.67;60.27;95167.88;5066290;28;20505;-78
2023/11/16 07:03:21;;;;;;;3.38;1.50;;;;;;;7.59;59.83;95159.81;5070580;28;20029;-77
2023/11/16 07:05:47;;;;;;;2.58;1.30;;;;;;;7.48;60.36;95146.75;5065572;28;20425;-75
2023/11/16 07:08:13;;;;;;;1.80;1.10;;;;;;;7.73;59.59;95161.47;5050666;28;20545;-77
2023/11/16 07:10:39;;;;;;;2.53;1.00;;;;;;;7.79;59.93;95163.66;5069227;28;20029;-73
2023/11/16 07:13:05;;;;;;;2.22;1.27;;;;;;;7.82;60.04;95158.28;5070647;28;20036;-74
2023/11/16 07:15:32;;;;;;;2.40;1.50;;;;;;;7.93;59.40;95160.97;5083436;28;20029;-75
2023/11/16 07:17:58;;;;;;;2.03;1.55;;;;;;;7.96;58.40;95158.19;5069375;28;20039;-75
2023/11/16 07:20:25;;;;;;;2.03;1.42;;;;;;;8.15;60.00;95165.53;5072053;28;20047;-75
2023/11/16 07:22:50;;;;;;;1.90;1.13;;;;;;;8.53;57.76;95158.72;5104227;28;20046;-76
2023/11/16 07:25:20;;;;;;;2.10;0.90;;;;;;;9.43;55.71;95164.44;5070662;28;20060;-77
2023/11/16 07:27:46;;;;;;;1.52;1.00;;;;;;;11.04;51.31;95147.88;5066987;28;20028;-76
2023/11/16 07:30:12;;;;;;;2.80;1.10;;;;;;;12.92;46.76;95154.00;5071062;28;20021;-75
2023/11/16 07:32:37;;;;;;;1.83;1.17;;;;;;;14.08;43.65;95132.41;5048343;28;20560;-75
2023/11/16 07:35:14;;;;;;;2.53;1.10;;;;;;;14.64;41.97;95154.28;5067417;28;20028;-74
2023/11/16 07:37:44;;;;;;;4.47;1.50;;;;;;;14.27;42.85;95158.50;5067951;28;20482;-75
2023/11/16 07:40:13;;;;;;;8.30;3.85;;;;;;;13.28;43.84;95157.81;5071507;28;20020;-75
2023/11/16 07:42:41;;;;;;;2.50;1.50;;;;;;;13.52;44.51;95160.06;5071563;28;20033;-75
2023/11/16 07:45:12;;;;;;;2.28;1.00;;;;;;;12.66;45.44;95149.28;5070328;28;20219;-75
2023/11/16 07:47:38;;;;;;;2.72;1.13;;;;;;;12.23;47.31;95158.13;5068974;28;20098;-75
2023/11/16 07:50:08;;;;;;;1.95;1.27;;;;;;;12.27;47.31;95151.69;5051635;28;20036;-74
2023/11/16 07:52:42;;;;;;;2.08;1.02;;;;;;;11.66;48.40;95163.75;5067362;28;20050;-75
2023/11/16 07:55:18;;;;;;;2.63;1.15;;;;;;;11.18;49.59;95171.00;5067436;28;20025;-75
2023/11/16 07:57:47;;;;;;;2.63;1.00;;;;;;;10.90;49.70;95166.31;5068112;28;20039;-75
2023/11/16 08:00:34;;;;;;;1.90;0.93;;;;;;;10.47;51.39;95169.63;5067962;28;20089;-75
2023/11/16 08:05:45;;;;;;;2.45;0.80;;;;;;;10.38;51.66;95183.34;5070281;28;20418;-75
2023/11/16 08:08:15;;;;;;;1.98;1.00;;;;;;;10.45;51.85;95184.53;5069987;28;20028;-74
2023/11/16 08:10:44;;;;;;;1.92;0.70;;;;;;;10.57;51.82;95193.16;5071129;28;20562;-74
2023/11/16 08:13:12;;;;;;;1.88;0.90;;;;;;;10.63;51.38;95192.69;5053515;28;20037;-75
2023/11/16 08:15:40;;;;;;;2.50;0.90;;;;;;;10.48;51.47;95212.88;5069950;28;20035;-75
2023/11/16 08:18:10;;;;;;;5.38;1.02;;;;;;;10.18;52.40;95183.03;5053694;28;20036;-75
2023/11/16 08:20:35;;;;;;;1.30;0.88;;;;;;;10.33;51.68;95193.25;5053278;28;20038;-75
2023/11/16 08:23:01;;;;;;;1.70;0.75;;;;;;;10.39;51.19;95174.59;5053161;28;20119;-74
2023/11/16 08:25:28;;;;;;;1.45;0.75;;;;;;;10.35;50.84;95186.16;5053263;28;20109;-74
2023/11/16 08:27:54;;;;;;;2.42;0.88;;;;;;;10.37;50.97;95189.50;5053203;28;20025;-74
2023/11/16 08:30:22;;;;;;;1.17;0.73;;;;;;;10.39;50.97;95182.38;5053115;28;20033;-74
2023/11/16 08:32:47;;;;;;;1.70;0.73;;;;;;;10.38;51.39;95198.91;5053351;28;20563;-75
2023/11/16 08:35:15;;;;;;;1.27;0.85;;;;;;;10.35;51.25;95204.34;5070993;28;20017;-75
2023/11/16 08:37:41;;;;;;;2.72;0.90;;;;;;;10.32;51.43;95201.97;5069702;28;20043;-74
2023/11/16 08:40:08;;;;;;;1.92;0.80;;;;;;;10.44;50.93;95201.88;5036299;28;20056;-74
2023/11/16 08:42:41;;;;;;;1.67;0.80;;;;;;;10.62;51.59;95188.44;5069505;28;20056;-75
2023/11/16 08:45:08;;;;;;;2.95;0.80;;;;;;;10.38;52.28;95202.34;5069700;28;20021;-75
2023/11/16 08:47:33;;;;;;;4.38;1.20;;;;;;;10.53;51.71;95210.75;5069555;28;20067;-74
2023/11/16 08:49:59;;;;;;;1.75;1.10;;;;;;;10.61;50.62;95194.56;5069558;28;20032;-74
2023/11/16 08:52:24;;;;;;;3.08;1.00;;;;;;;10.62;51.15;95196.22;5076265;28;20059;-75
2023/11/16 08:54:50;;;;;;;4.18;1.00;;;;;;;10.68;50.47;95206.97;5069412;28;20488;-74
2023/11/16 08:57:19;;;;;;;1.30;0.65;;;;;;;10.76;50.07;95202.97;5052819;28;20045;-75
2023/11/16 08:59:59;;;;;;;1.55;0.75;;;;;;;10.68;50.65;95206.97;5069334;28;20033;-75
2023/11/16 09:02:25;;;;;;;2.20;1.00;;;;;;;10.89;50.65;95198.44;5070719;28;20047;-75
2023/11/16 09:04:50;;;;;;;4.60;1.00;;;;;;;10.93;51.01;95207.66;5072140;28;20426;-75
2023/11/16 09:07:16;;;;;;;1.98;0.75;;;;;;;10.71;50.55;95191.13;5073407;28;20033;-75
2023/11/16 09:09:44;;;;;;;2.70;0.70;;;;;;;10.79;50.36;95216.53;5073348;28;20033;-75
2023/11/16 09:12:12;;;;;;;2.63;0.75;;;;;;;10.85;50.37;95218.66;5074358;28;20060;-74
2023/11/16 09:14:40;;;;;;;2.13;1.05;;;;;;;10.63;50.98;95201.28;5056590;28;20032;-75
2023/11/16 09:17:16;;;;;;;1.40;0.80;;;;;;;10.81;50.66;95229.41;5056916;28;20040;-75
2023/11/16 09:19:42;;;;;;;3.53;2.10;;;;;;;10.85;49.52;95215.22;5073199;28;20062;-75
2023/11/16 09:22:09;;;;;;;1.92;0.80;;;;;;;10.99;49.32;95212.38;5073024;28;20048;-75
2023/11/16 09:24:36;;;;;;;2.42;0.90;;;;;;;10.84;50.16;95211.81;5073035;28;20031;-75
2023/11/16 09:27:04;;;;;;;1.98;1.00;;;;;;;10.84;50.09;95198.00;5072904;28;20025;-75
2023/11/16 09:29:30;;;;;;;2.25;0.90;;;;;;;10.96;49.37;95210.84;5074119;28;20033;-75
2023/11/16 09:31:56;;;;;;;2.85;0.90;;;;;;;10.85;49.51;95203.06;5056324;28;20521;-74
2023/11/16 09:34:21;;;;;;;1.55;0.90;;;;;;;10.87;50.05;95189.97;5056247;28;20036;-74
2023/11/16 09:36:49;;;;;;;3.25;0.90;;;;;;;10.95;49.49;95195.38;5074018;28;20101;-75
2023/11/16 09:39:15;;;;;;;1.65;0.85;;;;;;;10.87;49.07;95161.38;5072800;28;20104;-74
2023/11/16 09:41:41;;;;;;;3.03;0.73;;;;;;;11.10;48.41;95188.97;5072512;28;20036;-75
2023/11/16 09:44:07;;;;;;;4.43;0.90;;;;;;;11.22;49.08;95187.16;5056134;28;20044;-73
2023/11/16 09:46:32;;;;;;;2.42;0.70;;;;;;;10.88;48.47;95191.59;5039140;28;20458;-75
2023/11/16 09:49:05;;;;;;;1.35;0.70;;;;;;;11.09;48.12;95192.53;5072503;28;20032;-74
2023/11/16 09:51:31;;;;;;;1.63;0.80;;;;;;;11.24;48.93;95184.47;5056736;28;20044;-74
2023/11/16 09:54:01;;;;;;;2.17;0.80;;;;;;;11.38;48.63;95176.38;5055889;28;20473;-75
2023/11/16 09:56:30;;;;;;;1.20;0.60;;;;;;;11.46;47.92;95160.97;5072425;28;20410;-75
2023/11/16 09:59:06;;;;;;;1.55;0.75;;;;;;;11.45;47.75;95185.34;5072428;28;20120;-74
2023/11/16 10:01:37;;;;;;;1.52;0.70;;;;;;;11.56;47.05;95168.84;5057198;28;20058;-75
2023/11/16 10:04:05;;;;;;;1.88;0.90;;;;;;;11.48;48.03;95164.28;5072335;28;20493;-74
2023/11/16 10:06:33;;;;;;;2.97;0.80;;;;;;;11.46;48.01;95184.38;5055784;28;20048;-74
2023/11/16 10:09:03;;;;;;;2.10;1.00;;;;;;;11.52;47.35;95170.06;5055983;28;20029;-75
2023/11/16 10:11:31;;;;;;;1.58;0.80;;;;;;;11.55;47.28;95173.22;5072220;28;20508;-75
2023/11/16 10:13:56;;;;;;;3.47;0.90;;;;;;;11.64;47.45;95176.88;5055572;28;20029;-75
2023/11/16 10:16:26;;;;;;;1.40;0.60;;;;;;;11.50;46.24;95185.78;5071803;28;20051;-75
2023/11/16 10:19:04;;;;;;;2.47;0.80;;;;;;;11.41;46.79;95181.31;5055338;28;20020;-74
2023/11/16 10:21:29;;;;;;;1.75;0.65;;;;;;;11.36;47.46;95183.47;5073224;28;20047;-75
2023/11/16 10:23:57;;;;;;;2.10;1.17;;;;;;;11.50;47.29;95175.38;5073360;28;20029;-75
2023/11/16 10:26:23;;;;;;;1.67;1.00;;;;;;;11.44;46.77;95175.06;5073116;28;20060;-75
2023/11/16 10:28:54;;;;;;;1.88;1.10;;;;;;;11.44;47.46;95149.88;5072989;28;20020;-75
2023/11/16 10:31:23;;;;;;;;;;;;;;;11.84;47.31;95163.06;5055872;28;20033;-75
2023/11/16 10:33:49;;;;;;;2.60;0.88;;;;;;;11.84;46.21;95164.84;5072883;28;19924;-75
2023/11/16 10:36:15;;;;;;;1.90;0.80;;;;;;;11.81;45.89;95152.91;5071778;28;20333;-74
2023/11/16 10:38:41;;;;;;;1.65;0.82;;;;;;;11.79;45.18;95159.19;5055044;28;20029;-75
2023/11/16 10:41:08;;;;;;;0.90;0.50;;;;;;;11.77;45.07;95158.47;5055106;28;20450;-74
2023/11/16 10:43:33;;;;;;;1.60;0.90;;;;;;;11.87;45.45;95162.03;5055194;28;20044;-75
2023/11/16 10:46:05;;;;;;;2.10;0.70;;;;;;;11.72;45.25;95145.00;5054946;28;20025;-75
2023/11/16 10:48:30;;;;;;;1.40;0.90;;;;;;;11.87;45.31;95145.56;5071702;28;20036;-75
2023/11/16 10:50:58;;;;;;;1.35;0.73;;;;;;;11.86;44.82;95144.72;5071543;28;20031;-75
2023/11/16 10:53:24;;;;;;;1.50;0.80;;;;;;;12.02;45.71;95146.91;5072685;28;20044;-75
2023/11/16 10:55:50;;;;;;;2.05;1.00;;;;;;;12.04;45.43;95143.22;5054654;28;20024;-75
2023/11/16 10:58:25;;;;;;;1.48;0.80;;;;;;;12.00;46.47;95139.19;5072847;28;20498;-75
2023/11/16 11:00:52;;;;;;;1.98;1.10;;;;;;;11.91;46.70;95136.56;5055526;28;20441;-75
2023/11/16 11:03:18;;;;;;;2.42;1.13;;;;;;;12.01;46.33;95119.22;5071329;28;20047;-75
2023/11/16 11:05:48;;;;;;;1.80;1.00;;;;;;;12.20;46.19;95136.72;5054655;28;20032;-75
2023/11/16 11:08:17;;;;;;;5.45;1.15;;;;;;;11.99;45.54;95134.97;5070985;28;20035;-74
2023/11/16 11:10:48;;;;;;;1.30;0.82;;;;;;;11.93;45.79;95124.25;5071056;28;20028;-75
2023/11/16 11:13:19;;;;;;;2.20;1.35;;;;;;;11.96;45.56;95132.63;5071261;28;20413;-75
2023/11/16 11:15:46;;;;;;;3.20;1.30;;;;;;;11.79;45.38;95139.19;5071011;28;20040;-75
2023/11/16 11:18:24;;;;;;;3.10;1.10;;;;;;;11.71;45.22;95125.97;5071044;28;20036;-75
2023/11/16 11:20:52;;;;;;;3.67;1.20;;;;;;;11.96;45.84;95122.19;5070972;28;20059;-75
2023/11/16 11:23:18;;;;;;;2.55;1.90;;;;;;;12.01;45.71;95122.66;5070812;28;20586;-75
2023/11/16 11:25:44;;;;;;;3.72;1.73;;;;;;;11.97;44.24;95129.03;5071556;28;20486;-74
2023/11/16 11:28:14;;;;;;;1.80;0.85;;;;;;;11.88;44.77;95110.78;5070303;28;20033;-75
2023/11/16 11:30:48;;;;;;;2.00;1.23;;;;;;;11.85;44.32;95128.28;5054605;28;20036;-75
2023/11/16 11:33:14;;;;;;;14.48;7.97;;;;;;;11.79;45.32;95117.53;5072162;28;20024;-75
2023/11/16 11:35:47;;;;;;;12.05;7.10;;;;;;;11.83;45.72;95124.13;5053902;28;20033;-75
2023/11/16 11:38:18;;;;;;;3.25;1.50;;;;;;;11.80;45.19;95113.97;5072086;28;20044;-75
2023/11/16 11:40:47;;;;;;;15.90;14.32;;;;;;;11.79;45.64;95120.16;5070418;28;20438;-75
2023/11/16 11:43:20;;;;;;;4.75;2.42;;;;;;;11.60;46.05;95097.41;5071355;28;20524;-75
2023/11/16 11:45:46;;;;;;;3.65;1.35;;;;;;;11.45;46.69;95124.66;5053670;28;20048;-75
2023/11/16 11:48:12;;;;;;;2.55;1.10;;;;;;;11.64;46.54;95124.81;5053918;28;20123;-74
2023/11/16 11:50:38;;;;;;;3.42;1.48;;;;;;;11.75;46.00;95124.75;5053591;28;20058;-75
2023/11/16 11:53:05;;;;;;;2.67;1.10;;;;;;;11.71;45.44;95127.75;5053366;28;20032;-74
2023/11/16 11:55:30;;;;;;;2.00;0.90;;;;;;;11.56;45.94;95119.41;5053753;28;20051;-75